Terminal Aerodrome Forecast
Issued by NWS

Home | Current Version | Previous Version | Text Only | Print | Product List | Glossary On
Versions: 1 2 3 4 5 6 7 8 9 10 11 12 13 14 15 16 17 18 19 20
244
FTUS43 KDLH 250528
TAFHYR
TAF
KHYR 250528Z 2506/2606 02004KT P6SM BKN035
     FM251000 00000KT 5SM BR SCT035
     FM251400 00000KT P6SM SCT025
     FM251600 13006KT P6SM BKN050=

USA.gov is the U.S. government's official web portal to all federal, state and local government web resources and services.